Aérodrome :
LOGIN :

S'inscrire | Disclaimer

   EN    FR    IT 

 










Légende :    VFR   VFR Marginal   IFR   IFR Intensif   IFR Très Intensif
Visi : 
Plafond : 
>= 8 km
>= 3000ft
5 à 8 km
1000 à 3000 ft
1500m à 5 km
500 à 1000 ft
800 à 1500m
200 à 500 ft
< 800m
< 200 ft
Symboles :   Orages  Brouillard  Fortes neiges  Fortes précipitations  Vent > 20 kt
SIGMETs :   Divers  Orages  Givrage  Turbulence  Onde Orograph.  Cendres Volcan.






- Altitude de l'aérodrome : 586 ft
- Code IATA : IEV


UKKK - Zhuliany

DERNIER METAR :
  • 171230Z 21007MPS CAVOK 08/01 Q1019 R26/190060 TEMPO 21010G16MPS

METARs EXPIRÉS :
  • 171200Z 23007MPS CAVOK 08/01 Q1020 R26/190060 TEMPO 21010G16MPS
  • 171130Z 21007MPS 170V250 CAVOK 08/01 Q1020 R26/190060 TEMPO 21010G16MPS
  • 171100Z 22006MPS 180V250 CAVOK 07/01 Q1020 R26/190060 TEMPO 21010G16MPS
  • 171030Z 22007MPS 190V250 CAVOK 06/00 Q1021 R26/190060 TEMPO 21010G16MPS
  • 171000Z 22007MPS CAVOK 06/00 Q1021 R26/190060 TEMPO 21010G16MPS

TAF TAF UKKK
Valide du 17 à 12h jusqu'au 18 à 12h UTC


171103Z 1712/1812 20006G12MPS 9999 BKN020 TX08/1712Z TN02/1805Z
TEMPO 1712/1716 21010G16MPS
BECMG 1716/1718 22005G10MPS
TEMPO 1720/1806 2000 BR BKN007



MET'MAP, la Météo Aéronautique d'un coup d'oeil ! - Copyright ORBIFLY Décembre 2007 - Disclaimer

ORBIFLY MET'MAP TEAM :

Programmation & Développement : Alexandra Zaïnal
Sur une idée originale de : Baudouin d'Aumeries
Assistance à la programmation : Marc-Olivier Méhu
Soutien technique & logistique : Manuel Goepfert

Contact : metmap@orbifly.com




SOURCES & CREDITS :

   NOAA